PAH weather

Barkley Regional Airport
Paducah, Kentucky, United States

Public forecast

Using degrees Fahrenheit for public forecast. Weather courtesy of forecast.io.

METAR (pilot weather report)

Retrieved 2019/05/27 12:53 UTC (12 minutes ago):

KPAH 271253Z 21003KT 9SM CLR 25/21 A3001 RMK AO2 SLP158 T02500206

TAF (pilot weather forecast)

Retrieved 2019/05/27 12:30 UTC (35 minutes ago):

TAF KPAH 271128Z 2712/2812 VRB03KT P6SM BKN250 TEMPO 2712/2713 5SM BR FM271500 22009KT P6SM SCT050 BKN250 FM271900 22012KT P6SM SCT040 SCT250 FM280100 20006KT P6SM FEW250